Time;durP1;ratioP1;P1;durP2;ratioP2;P2;SDS_P1;SDS_P2;PMS_P1;PMS_P2;Temp;Humidity;BMP_temperature;BMP_pressure;BME280_temperature;BME280_humidity;BME280_pressure;Samples;Min_cycle;Max_cycle;Signal;HPM_P1;HPM_P2
2023/10/28 00:00:18;;;;;;;0.93;0.47;;;10.60;99.90;;;;;;5021435;28;20229;-82
2023/10/28 00:02:44;;;;;;;0.50;0.30;;;10.60;99.90;;;;;;5027530;28;23442;-82
2023/10/28 00:05:10;;;;;;;0.40;0.30;;;10.60;99.90;;;;;;5029739;28;20190;-82
2023/10/28 00:07:37;;;;;;;0.87;0.47;;;10.70;99.90;;;;;;5001977;28;20205;-83
2023/10/28 00:10:03;;;;;;;0.60;0.30;;;10.70;99.90;;;;;;5019086;28;20186;-83
2023/10/28 00:12:29;;;;;;;0.30;0.20;;;;;;;;;;5004621;28;20214;-83
2023/10/28 00:14:56;;;;;;;0.55;0.50;;;10.60;99.90;;;;;;5001903;28;20185;-82
2023/10/28 00:17:24;;;;;;;0.50;0.50;;;10.60;99.90;;;;;;5005189;28;20190;-77
2023/10/28 00:19:50;;;;;;;0.30;0.20;;;10.60;99.90;;;;;;5005875;28;20198;-78
2023/10/28 00:22:17;;;;;;;0.45;0.30;;;;;;;;;;5003005;28;20217;-82
2023/10/28 00:24:43;;;;;;;1.17;0.55;;;;;;;;;;5004847;28;20179;-86
2023/10/28 00:27:09;;;;;;;0.70;0.40;;;10.60;99.90;;;;;;5005421;28;20201;-80
2023/10/28 00:29:35;;;;;;;0.50;0.40;;;10.60;99.90;;;;;;5019171;28;20221;-83
2023/10/28 00:32:01;;;;;;;2.73;0.60;;;;;;;;;;5018344;28;20241;-84
2023/10/28 00:34:27;;;;;;;0.60;0.40;;;10.60;99.90;;;;;;5002976;28;20445;-85
2023/10/28 00:36:52;;;;;;;0.87;0.30;;;10.60;99.90;;;;;;4996284;28;21221;-82
2023/10/28 00:39:19;;;;;;;0.40;0.37;;;10.50;99.90;;;;;;5007956;28;20194;-83
2023/10/28 00:41:47;;;;;;;0.32;0.20;;;10.50;99.90;;;;;;5009967;28;20266;-83
2023/10/28 00:44:14;;;;;;;0.40;0.30;;;10.50;99.90;;;;;;5008539;28;20197;-85
2023/10/28 00:46:40;;;;;;;0.55;0.47;;;10.50;99.90;;;;;;4999377;28;20209;-84
2023/10/28 00:49:07;;;;;;;4.72;0.57;;;10.50;99.90;;;;;;5026305;28;20186;-86
2023/10/28 00:51:33;;;;;;;0.38;0.30;;;10.50;99.90;;;;;;5019438;28;20198;-83
2023/10/28 00:53:59;;;;;;;0.40;0.20;;;;;;;;;;5006216;28;20194;-85
2023/10/28 00:56:26;;;;;;;0.50;0.40;;;10.60;99.90;;;;;;4990213;28;20449;-83
2023/10/28 00:58:52;;;;;;;0.40;0.30;;;10.50;99.90;;;;;;4999655;28;20189;-85
2023/10/28 01:01:19;;;;;;;0.65;0.30;;;10.50;99.90;;;;;;5015509;28;20544;-82
2023/10/28 01:03:46;;;;;;;0.40;0.30;;;;;;;;;;4997363;28;20241;-82
2023/10/28 01:06:12;;;;;;;0.40;0.30;;;10.50;99.90;;;;;;5015647;28;20199;-83
2023/10/28 01:08:38;;;;;;;0.40;0.30;;;10.50;99.90;;;;;;5002239;28;20190;-83
2023/10/28 01:11:04;;;;;;;0.40;0.40;;;;;;;;;;5010968;28;20186;-82
2023/10/28 01:13:30;;;;;;;0.40;0.30;;;10.50;99.90;;;;;;5005448;28;20296;-83
2023/10/28 01:15:59;;;;;;;0.50;0.50;;;10.50;99.90;;;;;;5004921;28;20198;-81
2023/10/28 01:18:25;;;;;;;0.80;0.70;;;10.50;99.90;;;;;;5004921;28;20616;-82
2023/10/28 01:20:51;;;;;;;0.57;0.40;;;10.50;99.90;;;;;;5006462;28;20478;-82
2023/10/28 01:23:18;;;;;;;0.52;0.52;;;10.60;99.90;;;;;;5007163;28;20300;-83
2023/10/28 01:25:43;;;;;;;0.50;0.50;;;10.50;99.90;;;;;;5003238;28;20198;-82
2023/10/28 01:28:09;;;;;;;0.40;0.30;;;10.50;99.90;;;;;;5002048;28;20204;-85
2023/10/28 01:30:34;;;;;;;0.67;0.67;;;10.50;99.90;;;;;;5004685;28;20657;-83
2023/10/28 01:33:00;;;;;;;0.60;0.50;;;10.50;99.90;;;;;;5005284;28;20210;-81
2023/10/28 01:35:26;;;;;;;0.40;0.30;;;;;;;;;;5002757;28;20449;-82
2023/10/28 01:37:51;;;;;;;0.40;0.30;;;10.50;99.90;;;;;;5003263;28;20190;-85
2023/10/28 01:40:19;;;;;;;2.93;0.47;;;;;;;;;;5001348;28;21171;-82
2023/10/28 01:42:45;;;;;;;0.57;0.45;;;10.50;99.90;;;;;;5003464;28;20238;-85
2023/10/28 01:45:12;;;;;;;0.40;0.30;;;10.40;99.90;;;;;;5000834;28;20187;-86
2023/10/28 01:47:42;;;;;;;1.52;0.40;;;10.40;99.90;;;;;;4995021;28;20190;-84
2023/10/28 01:50:12;;;;;;;1.55;0.50;;;10.30;99.90;;;;;;5003011;28;20339;-83
2023/10/28 01:52:38;;;;;;;0.40;0.40;;;;;;;;;;5000451;28;20202;-82
2023/10/28 01:55:04;;;;;;;0.40;0.40;;;10.30;99.90;;;;;;5018719;28;20194;-86
2023/10/28 01:57:30;;;;;;;0.63;0.40;;;10.20;99.90;;;;;;5004316;28;20190;-82
2023/10/28 01:59:57;;;;;;;0.40;0.23;;;10.30;99.90;;;;;;5006382;28;20519;-84
2023/10/28 02:02:23;;;;;;;0.40;0.30;;;10.10;99.90;;;;;;5005196;28;20213;-81
2023/10/28 02:04:51;;;;;;;0.68;0.50;;;10.10;99.90;;;;;;5001854;28;20269;-83
2023/10/28 02:07:17;;;;;;;3.70;0.70;;;10.00;99.90;;;;;;5012887;28;20190;-84
2023/10/28 02:09:42;;;;;;;0.50;0.30;;;10.10;99.90;;;;;;5025781;28;20238;-84
2023/10/28 02:12:08;;;;;;;1.03;0.40;;;;;;;;;;5027879;28;20225;-85
2023/10/28 02:14:35;;;;;;;0.40;0.30;;;10.20;99.90;;;;;;5009711;28;20194;-85
2023/10/28 02:17:01;;;;;;;1.40;0.50;;;10.20;99.90;;;;;;4997166;28;21260;-83
2023/10/28 02:19:26;;;;;;;2.20;0.60;;;10.20;99.90;;;;;;5013609;28;20870;-86
2023/10/28 02:21:54;;;;;;;2.00;0.80;;;;;;;;;;5005078;28;20881;-83
2023/10/28 02:24:20;;;;;;;0.40;0.30;;;10.10;99.90;;;;;;5023884;28;20186;-86
2023/10/28 02:26:46;;;;;;;0.70;0.50;;;;;;;;;;5008359;28;21148;-86
2023/10/28 02:29:12;;;;;;;1.73;0.97;;;10.00;99.90;;;;;;5006159;28;20197;-83
2023/10/28 02:31:38;;;;;;;3.63;0.47;;;;;;;;;;5010355;28;20441;-84
2023/10/28 02:34:07;;;;;;;1.33;0.63;;;9.90;99.90;;;;;;5010145;28;20880;-84
2023/10/28 02:36:33;;;;;;;1.40;0.50;;;;;;;;;;5007041;28;20833;-83
2023/10/28 02:39:00;;;;;;;0.77;0.65;;;9.80;99.90;;;;;;5002134;28;20193;-84
2023/10/28 02:41:26;;;;;;;0.40;0.30;;;;;;;;;;5021614;28;20206;-84
2023/10/28 02:43:52;;;;;;;0.37;0.33;;;;;;;;;;5010362;28;20218;-82
2023/10/28 02:46:24;;;;;;;0.82;0.55;;;9.70;99.90;;;;;;5023155;28;20840;-84
2023/10/28 02:48:54;;;;;;;2.25;0.77;;;9.80;99.90;;;;;;5006837;28;20178;-84
2023/10/28 02:51:19;;;;;;;0.50;0.40;;;9.90;99.90;;;;;;5000666;28;20175;-84
2023/10/28 02:53:45;;;;;;;0.77;0.53;;;9.90;99.90;;;;;;5008606;28;20510;-83
2023/10/28 02:56:11;;;;;;;1.23;0.93;;;9.90;99.90;;;;;;5006581;28;20179;-86
2023/10/28 02:58:39;;;;;;;3.50;0.63;;;;;;;;;;5010184;28;20221;-84
2023/10/28 03:01:09;;;;;;;1.48;0.70;;;9.90;99.90;;;;;;5007024;28;20202;-83
2023/10/28 03:03:35;;;;;;;0.77;0.47;;;;;;;;;;5028496;28;20220;-84
2023/10/28 03:06:02;;;;;;;1.50;0.52;;;;;;;;;;5003485;28;20278;-83
2023/10/28 03:08:28;;;;;;;3.90;0.60;;;;;;;;;;5005330;28;20225;-84
2023/10/28 03:10:54;;;;;;;10.40;0.82;;;10.00;99.90;;;;;;5007200;28;20198;-84
2023/10/28 03:13:20;;;;;;;0.40;0.30;;;;;;;;;;5009281;28;20210;-85
2023/10/28 03:15:46;;;;;;;1.43;0.63;;;10.10;99.90;;;;;;5006673;28;20297;-85
2023/10/28 03:18:13;;;;;;;0.40;0.30;;;10.40;99.90;;;;;;5006981;28;20841;-83
2023/10/28 03:20:39;;;;;;;0.95;0.60;;;;;;;;;;5020750;28;20214;-83
2023/10/28 03:23:05;;;;;;;0.50;0.40;;;;;;;;;;5004686;28;20229;-83
2023/10/28 03:25:32;;;;;;;1.23;0.60;;;10.30;99.90;;;;;;5004955;28;20656;-84
2023/10/28 03:28:00;;;;;;;0.90;0.50;;;;;;;;;;5018653;28;20465;-84
2023/10/28 03:30:26;;;;;;;1.45;0.80;;;;;;;;;;5037853;28;20810;-87
2023/10/28 03:32:52;;;;;;;0.50;0.50;;;10.40;99.90;;;;;;5013421;28;20206;-86
2023/10/28 03:35:17;;;;;;;2.33;0.50;;;10.50;99.90;;;;;;5012312;28;20198;-83
2023/10/28 03:37:44;;;;;;;0.40;0.40;;;;;;;;;;5011283;28;20195;-82
2023/10/28 03:40:10;;;;;;;2.45;0.50;;;10.60;99.90;;;;;;5012166;28;20214;-85
2023/10/28 03:42:36;;;;;;;3.38;0.95;;;10.50;99.90;;;;;;5012594;28;20313;-82
2023/10/28 03:45:03;;;;;;;2.70;1.17;;;10.50;99.90;;;;;;5010517;28;20191;-84
2023/10/28 03:47:29;;;;;;;2.05;0.75;;;10.50;99.90;;;;;;4998287;28;20437;-83
2023/10/28 03:49:55;;;;;;;3.87;0.70;;;10.50;99.90;;;;;;5004596;28;20672;-85
2023/10/28 03:52:20;;;;;;;2.47;0.77;;;10.30;99.90;;;;;;5005120;28;20222;-82
2023/10/28 03:54:46;;;;;;;18.50;1.53;;;;;;;;;;5013612;28;20461;-84
2023/10/28 03:57:12;;;;;;;1.53;0.67;;;10.20;99.90;;;;;;5002907;28;20252;-82
2023/10/28 03:59:37;;;;;;;0.40;0.27;;;10.20;99.90;;;;;;5000552;28;20477;-84
2023/10/28 04:02:03;;;;;;;0.83;0.60;;;10.20;99.90;;;;;;5013590;28;20241;-82
2023/10/28 04:04:29;;;;;;;1.23;0.70;;;10.20;99.90;;;;;;4998871;28;20260;-85
2023/10/28 04:06:55;;;;;;;2.63;0.83;;;;;;;;;;5000434;28;20237;-83
2023/10/28 04:09:23;;;;;;;0.40;0.30;;;10.20;99.90;;;;;;5001597;28;20472;-84
2023/10/28 04:11:49;;;;;;;0.47;0.47;;;10.00;99.90;;;;;;5001571;28;20445;-83
2023/10/28 04:14:16;;;;;;;0.40;0.33;;;10.00;99.90;;;;;;5014518;28;20194;-84
2023/10/28 04:16:41;;;;;;;0.82;0.38;;;10.00;99.90;;;;;;5013361;28;20221;-83
2023/10/28 04:19:07;;;;;;;0.93;0.60;;;10.10;99.90;;;;;;5021069;28;20202;-82
2023/10/28 04:21:33;;;;;;;1.80;0.30;;;;;;;;;;5016766;28;20217;-85
2023/10/28 04:23:59;;;;;;;0.40;0.33;;;;;;;;;;5002151;28;20462;-82
2023/10/28 04:26:25;;;;;;;0.40;0.30;;;10.10;99.90;;;;;;4995139;28;20831;-82
2023/10/28 04:28:51;;;;;;;0.40;0.30;;;;;;;;;;5002247;28;20537;-83
2023/10/28 04:31:16;;;;;;;0.90;0.73;;;10.00;99.90;;;;;;5013622;28;20205;-82
2023/10/28 04:33:42;;;;;;;0.40;0.30;;;;;;;;;;5007571;28;20941;-81
2023/10/28 04:36:09;;;;;;;2.00;0.57;;;10.10;99.90;;;;;;5012297;28;20229;-83
2023/10/28 04:38:40;;;;;;;0.40;0.30;;;;;;;;;;4995890;28;20456;-84
2023/10/28 04:41:08;;;;;;;0.88;0.52;;;10.00;99.90;;;;;;5001325;28;20185;-83
2023/10/28 04:43:33;;;;;;;0.70;0.40;;;10.10;99.90;;;;;;4998042;28;20886;-82
2023/10/28 04:45:59;;;;;;;3.17;1.27;;;10.20;99.90;;;;;;5007250;28;20198;-84
2023/10/28 04:48:28;;;;;;;0.97;0.93;;;;;;;;;;5007485;28;20240;-83
2023/10/28 04:50:55;;;;;;;10.77;1.55;;;10.20;99.90;;;;;;5003743;28;21078;-82
2023/10/28 04:53:30;;;;;;;1.25;0.60;;;10.30;99.90;;;;;;5000830;28;20217;-85
2023/10/28 04:55:56;;;;;;;0.40;0.40;;;;;;;;;;5015427;28;20194;-84
2023/10/28 04:58:22;;;;;;;0.77;0.73;;;10.20;99.90;;;;;;5008038;28;20206;-81
2023/10/28 05:00:48;;;;;;;8.93;1.20;;;10.30;99.90;;;;;;4996123;28;20825;-86
2023/10/28 05:03:13;;;;;;;1.03;0.50;;;10.20;99.90;;;;;;5002576;28;20218;-83
2023/10/28 05:05:39;;;;;;;0.93;0.80;;;;;;;;;;4995619;28;20197;-83
2023/10/28 05:08:05;;;;;;;1.03;0.63;;;;;;;;;;4999270;28;20257;-86
2023/10/28 05:10:32;;;;;;;0.93;0.77;;;10.00;99.90;;;;;;4998553;28;20445;-84
2023/10/28 05:12:57;;;;;;;1.77;0.60;;;10.00;99.90;;;;;;5013238;28;20469;-83
2023/10/28 05:15:24;;;;;;;0.57;0.50;;;10.10;99.90;;;;;;5001580;28;20196;-83
2023/10/28 05:17:50;;;;;;;0.40;0.40;;;10.00;99.90;;;;;;5003265;28;20186;-84
2023/10/28 05:20:16;;;;;;;0.50;0.40;;;10.10;99.90;;;;;;4999788;28;20200;-82
2023/10/28 05:22:42;;;;;;;4.50;1.27;;;10.10;99.90;;;;;;5001675;28;20206;-82
2023/10/28 05:25:08;;;;;;;0.40;0.30;;;;;;;;;;5001852;28;20711;-84
2023/10/28 05:27:34;;;;;;;2.15;0.55;;;10.30;99.90;;;;;;5005384;28;20196;-84
2023/10/28 05:30:00;;;;;;;1.23;0.60;;;;;;;;;;5003125;28;20202;-84
2023/10/28 05:32:26;;;;;;;0.50;0.50;;;10.30;99.90;;;;;;5002813;28;20217;-84
2023/10/28 05:34:51;;;;;;;0.50;0.40;;;10.30;99.90;;;;;;4995834;28;20555;-83
2023/10/28 05:37:17;;;;;;;0.60;0.60;;;10.30;99.90;;;;;;4998811;28;20542;-83
2023/10/28 05:39:43;;;;;;;0.40;0.30;;;10.30;99.90;;;;;;5014117;28;20190;-82
2023/10/28 05:42:11;;;;;;;0.83;0.33;;;10.30;99.90;;;;;;5006299;28;20503;-81
2023/10/28 05:44:37;;;;;;;2.08;0.90;;;;;;;;;;5021160;28;20545;-83
2023/10/28 05:47:02;;;;;;;1.30;0.88;;;10.30;99.90;;;;;;5004044;28;20197;-85
2023/10/28 05:49:28;;;;;;;2.67;0.40;;;10.40;99.90;;;;;;4997767;28;22702;-84
2023/10/28 05:51:54;;;;;;;0.63;0.50;;;10.30;99.90;;;;;;5016616;28;20444;-86
2023/10/28 05:54:20;;;;;;;0.70;0.40;;;10.30;99.90;;;;;;5002050;28;20297;-86
2023/10/28 05:56:46;;;;;;;0.40;0.40;;;;;;;;;;5001532;28;20233;-83
2023/10/28 05:59:12;;;;;;;0.57;0.40;;;10.30;99.90;;;;;;5019927;28;20216;-85
2023/10/28 06:01:38;;;;;;;1.55;0.50;;;10.30;99.90;;;;;;5001342;28;20214;-85
2023/10/28 06:04:04;;;;;;;0.60;0.37;;;10.30;99.90;;;;;;5005209;28;20262;-83
2023/10/28 06:06:30;;;;;;;0.57;0.50;;;10.40;99.90;;;;;;5009653;28;20269;-85
2023/10/28 06:09:00;;;;;;;0.95;0.40;;;10.40;99.90;;;;;;5001890;28;20182;-83
2023/10/28 06:11:26;;;;;;;0.73;0.68;;;10.40;99.90;;;;;;5017700;28;20726;-83
2023/10/28 06:13:52;;;;;;;12.35;0.93;;;;;;;;;;5016608;28;20284;-86
2023/10/28 06:16:20;;;;;;;0.80;0.60;;;10.40;99.90;;;;;;5004716;28;20669;-84
2023/10/28 06:18:46;;;;;;;0.40;0.30;;;10.50;99.90;;;;;;5011552;28;21270;-82
2023/10/28 06:21:14;;;;;;;1.27;0.70;;;10.40;99.90;;;;;;5015484;28;20240;-83
2023/10/28 06:23:40;;;;;;;0.60;0.30;;;10.40;99.90;;;;;;5015925;28;20225;-81
2023/10/28 06:26:07;;;;;;;1.02;0.40;;;;;;;;;;5024798;28;20194;-83
2023/10/28 06:28:33;;;;;;;0.50;0.30;;;;;;;;;;5001005;28;20191;-82
2023/10/28 06:30:59;;;;;;;0.40;0.30;;;10.50;99.90;;;;;;5002408;28;20186;-83
2023/10/28 06:33:24;;;;;;;0.40;0.30;;;10.30;99.90;;;;;;5004405;28;20469;-85
2023/10/28 06:35:50;;;;;;;0.80;0.80;;;10.50;99.90;;;;;;5002635;28;20204;-81
2023/10/28 06:38:17;;;;;;;1.13;0.60;;;10.50;99.90;;;;;;5002595;28;20305;-83
2023/10/28 06:40:46;;;;;;;1.15;1.05;;;10.50;99.90;;;;;;4996599;28;20417;-85
2023/10/28 06:43:12;;;;;;;4.88;1.70;;;10.60;99.90;;;;;;5000291;28;20293;-81
2023/10/28 06:45:39;;;;;;;1.20;1.10;;;10.60;99.90;;;;;;5021666;28;20297;-85
2023/10/28 06:48:04;;;;;;;0.50;0.50;;;10.80;99.90;;;;;;5012081;28;20782;-84
2023/10/28 06:50:30;;;;;;;1.70;1.03;;;10.80;99.90;;;;;;5008818;28;20183;-84
2023/10/28 06:52:56;;;;;;;2.60;0.80;;;10.80;99.90;;;;;;5010744;28;20225;-82
2023/10/28 06:55:22;;;;;;;1.63;1.00;;;10.70;99.90;;;;;;5005909;28;20671;-83
2023/10/28 06:57:48;;;;;;;0.60;0.30;;;10.70;99.90;;;;;;5004262;28;20269;-87
2023/10/28 07:00:14;;;;;;;1.00;0.60;;;10.70;99.90;;;;;;5006150;28;20467;-84
2023/10/28 07:02:41;;;;;;;0.40;0.30;;;10.90;99.90;;;;;;5000337;28;20288;-82
2023/10/28 07:05:10;;;;;;;1.23;1.02;;;10.70;99.90;;;;;;5016630;28;20201;-84
2023/10/28 07:07:39;;;;;;;2.58;0.57;;;11.10;99.90;;;;;;5034406;28;20228;-81
2023/10/28 07:10:05;;;;;;;0.88;0.38;;;11.10;99.90;;;;;;5008214;28;20214;-83
2023/10/28 07:12:31;;;;;;;1.23;0.80;;;11.20;99.90;;;;;;5006127;28;20202;-82
2023/10/28 07:14:56;;;;;;;1.13;1.03;;;11.30;99.90;;;;;;5016044;28;20202;-82
2023/10/28 07:17:22;;;;;;;0.70;0.70;;;11.30;99.90;;;;;;5015011;28;20198;-81
2023/10/28 07:19:49;;;;;;;0.50;0.50;;;11.20;99.90;;;;;;5014247;28;20703;-84
2023/10/28 07:22:22;;;;;;;2.63;1.42;;;11.10;99.90;;;;;;5008295;28;20555;-86
2023/10/28 07:24:48;;;;;;;1.10;0.60;;;11.10;99.90;;;;;;5015740;28;20182;-81
2023/10/28 07:27:14;;;;;;;1.13;0.83;;;11.10;99.90;;;;;;5014658;28;20225;-83
2023/10/28 07:29:40;;;;;;;0.90;0.70;;;11.70;99.90;;;;;;5015712;28;20927;-82
2023/10/28 07:32:06;;;;;;;1.13;1.03;;;12.10;99.90;;;;;;5017357;28;20240;-82
2023/10/28 07:34:31;;;;;;;0.50;0.45;;;11.70;99.90;;;;;;5017133;28;20838;-81
2023/10/28 07:37:00;;;;;;;0.80;0.50;;;11.40;99.90;;;;;;5016746;28;20198;-82
2023/10/28 07:39:26;;;;;;;4.00;0.75;;;11.10;99.90;;;;;;5017657;28;20217;-82
2023/10/28 07:41:53;;;;;;;1.00;0.73;;;11.30;99.90;;;;;;5017683;28;20315;-81
2023/10/28 07:44:18;;;;;;;0.73;0.43;;;11.30;99.90;;;;;;5033480;28;20313;-82
2023/10/28 07:46:46;;;;;;;1.10;0.60;;;;;;;;;;5016795;28;20199;-83
2023/10/28 07:49:12;;;;;;;1.97;1.30;;;11.90;99.90;;;;;;5008822;28;20196;-81
2023/10/28 07:51:38;;;;;;;0.87;0.83;;;13.20;99.90;;;;;;5015201;28;20500;-82
2023/10/28 07:54:04;;;;;;;0.70;0.50;;;14.30;99.90;;;;;;5015107;28;20453;-84
2023/10/28 07:56:30;;;;;;;1.00;0.67;;;;;;;;;;5016938;28;20508;-79
2023/10/28 07:58:59;;;;;;;0.40;0.30;;;13.80;99.90;;;;;;5020037;28;20229;-84
2023/10/28 08:01:29;;;;;;;0.50;0.40;;;15.20;99.90;;;;;;5018663;28;20445;-84
2023/10/28 08:03:55;;;;;;;0.80;0.43;;;;;;;;;;5015525;28;20461;-82
2023/10/28 08:06:21;;;;;;;0.40;0.30;;;14.30;99.90;;;;;;5015415;28;20437;-83
2023/10/28 08:08:47;;;;;;;1.63;0.57;;;14.30;99.90;;;;;;5018060;28;20444;-83
2023/10/28 08:11:13;;;;;;;1.23;0.90;;;14.00;99.90;;;;;;5018416;28;20441;-82
2023/10/28 08:13:40;;;;;;;5.37;1.43;;;14.80;99.90;;;;;;5018472;28;20460;-82
2023/10/28 08:16:09;;;;;;;1.43;0.87;;;15.30;99.90;;;;;;5018765;28;20435;-83
2023/10/28 08:18:35;;;;;;;2.03;0.50;;;14.80;99.90;;;;;;5017361;28;20448;-82
2023/10/28 08:21:01;;;;;;;1.70;1.07;;;15.00;99.90;;;;;;5011322;28;20437;-83
2023/10/28 08:23:30;;;;;;;0.80;0.67;;;;;;;;;;5018649;28;20480;-83
2023/10/28 08:25:57;;;;;;;0.60;0.43;;;16.20;99.90;;;;;;5042103;28;20190;-82
2023/10/28 08:28:23;;;;;;;0.40;0.30;;;;;;;;;;5020461;28;20452;-82
2023/10/28 08:30:49;;;;;;;0.50;0.30;;;;;;;;;;5034491;28;20461;-83
2023/10/28 08:33:14;;;;;;;2.70;0.57;;;;;;;;;;5018220;28;21060;-83
2023/10/28 08:35:40;;;;;;;2.00;1.07;;;15.70;99.90;;;;;;5018368;28;20564;-82
2023/10/28 08:38:06;;;;;;;0.90;0.67;;;;;;;;;;5015874;28;20448;-84
2023/10/28 08:40:33;;;;;;;2.50;0.70;;;14.70;99.90;;;;;;5006625;28;20378;-82
2023/10/28 08:42:59;;;;;;;2.20;0.30;;;14.20;99.90;;;;;;5015591;28;20477;-81
2023/10/28 08:45:27;;;;;;;7.30;0.77;;;14.10;99.90;;;;;;5015454;28;20512;-85
2023/10/28 08:47:53;;;;;;;0.50;0.30;;;14.40;99.90;;;;;;5021327;28;20263;-83
2023/10/28 08:50:24;;;;;;;0.60;0.43;;;14.30;99.90;;;;;;5015124;28;20445;-80
2023/10/28 08:52:56;;;;;;;1.90;0.47;;;14.30;99.90;;;;;;5004323;28;20457;-81
2023/10/28 08:55:24;;;;;;;1.63;0.40;;;;;;;;;;5031719;28;20440;-84
2023/10/28 08:57:51;;;;;;;1.17;0.40;;;15.00;99.90;;;;;;5015936;28;20468;-82
2023/10/28 09:00:19;;;;;;;1.40;0.87;;;15.20;99.90;;;;;;5015731;28;20443;-86
2023/10/28 09:02:49;;;;;;;1.47;0.90;;;15.20;99.90;;;;;;5012622;28;20475;-82
2023/10/28 09:05:15;;;;;;;0.80;0.40;;;15.00;99.90;;;;;;5031651;28;20531;-80
2023/10/28 09:07:43;;;;;;;3.73;0.73;;;14.70;99.90;;;;;;5019025;28;20531;-80
2023/10/28 09:10:10;;;;;;;1.00;0.67;;;15.30;99.90;;;;;;5013981;28;20444;-82
2023/10/28 09:12:36;;;;;;;0.70;0.50;;;16.20;99.90;;;;;;5013632;28;20469;-86
2023/10/28 09:15:03;;;;;;;2.30;0.50;;;16.60;99.90;;;;;;5012550;28;20468;-85
2023/10/28 09:17:28;;;;;;;2.33;0.50;;;17.00;99.90;;;;;;5012793;28;20465;-82
2023/10/28 09:19:54;;;;;;;3.23;0.87;;;17.00;99.90;;;;;;5012778;28;20432;-83
2023/10/28 09:22:20;;;;;;;2.60;0.40;;;16.90;99.90;;;;;;5008995;28;20206;-85
2023/10/28 09:24:46;;;;;;;1.47;0.50;;;16.10;99.90;;;;;;5013040;28;20185;-85
2023/10/28 09:27:13;;;;;;;3.40;0.50;;;;;;;;;;5013736;28;20440;-85
2023/10/28 09:29:41;;;;;;;4.63;0.60;;;;;;;;;;5005762;28;21000;-84
2023/10/28 09:32:08;;;;;;;6.00;0.77;;;15.80;99.90;;;;;;5027451;28;20461;-82
2023/10/28 09:34:34;;;;;;;1.37;0.50;;;15.60;99.90;;;;;;5028560;28;20530;-80
2023/10/28 09:37:01;;;;;;;2.23;0.90;;;15.70;99.90;;;;;;5015582;28;20532;-85
2023/10/28 09:39:27;;;;;;;0.70;0.40;;;;;;;;;;5014162;28;20651;-81
2023/10/28 09:41:53;;;;;;;0.40;0.40;;;15.50;99.90;;;;;;5012687;28;20473;-81
2023/10/28 09:44:20;;;;;;;4.20;0.83;;;15.70;99.90;;;;;;5012572;28;20437;-83
2023/10/28 09:46:50;;;;;;;2.17;1.40;;;16.00;99.90;;;;;;5011844;28;20434;-81
2023/10/28 09:49:20;;;;;;;0.47;0.30;;;15.70;99.90;;;;;;5012601;28;20440;-83
2023/10/28 09:51:51;;;;;;;2.80;1.13;;;15.70;99.90;;;;;;5008218;28;20449;-83
2023/10/28 09:54:25;;;;;;;1.43;0.60;;;15.50;99.90;;;;;;5011021;28;20659;-85
2023/10/28 09:56:52;;;;;;;2.50;0.70;;;15.30;99.90;;;;;;5010456;28;20969;-85
2023/10/28 09:59:21;;;;;;;1.70;0.63;;;15.20;99.90;;;;;;5011194;28;20449;-83
2023/10/28 10:02:11;;;;;;;1.57;0.50;;;14.90;99.90;;;;;;5013033;28;20488;-81
2023/10/28 10:04:49;;;;;;;1.20;0.93;;;14.90;99.90;;;;;;5012305;28;20638;-83
2023/10/28 10:07:16;;;;;;;0.90;0.50;;;14.70;99.90;;;;;;5011686;28;20781;-84
2023/10/28 10:09:48;;;;;;;0.97;0.50;;;14.70;99.90;;;;;;5008692;28;20445;-85
2023/10/28 10:12:15;;;;;;;2.67;0.50;;;14.60;99.90;;;;;;5012051;28;20503;-83
2023/10/28 10:14:48;;;;;;;2.93;0.50;;;14.60;99.90;;;;;;5018174;28;20449;-83
2023/10/28 10:17:31;;;;;;;4.00;0.87;;;14.40;99.90;;;;;;5021059;28;20476;-83
2023/10/28 10:19:59;;;;;;;7.30;0.87;;;14.50;99.90;;;;;;5026995;28;20449;-83
2023/10/28 10:22:29;;;;;;;1.27;0.60;;;14.70;99.90;;;;;;5011672;28;20472;-82
2023/10/28 10:24:55;;;;;;;0.90;0.37;;;14.80;99.90;;;;;;5013395;28;20444;-82
2023/10/28 10:27:34;;;;;;;0.70;0.50;;;15.00;99.90;;;;;;5012352;28;20445;-82
2023/10/28 10:30:08;;;;;;;2.87;1.10;;;14.70;99.90;;;;;;5013289;28;20182;-81
2023/10/28 10:32:44;;;;;;;0.73;0.50;;;14.90;99.90;;;;;;5032022;28;20478;-82
2023/10/28 10:35:26;;;;;;;2.20;0.80;;;15.10;99.90;;;;;;5028675;28;20440;-82
2023/10/28 10:38:06;;;;;;;8.00;1.00;;;15.50;99.90;;;;;;5018380;28;20440;-83
2023/10/28 10:40:34;;;;;;;2.60;0.63;;;15.70;99.90;;;;;;4998077;28;20463;-83
2023/10/28 10:43:08;;;;;;;1.30;0.57;;;15.70;99.90;;;;;;5036592;28;20473;-83
2023/10/28 10:45:34;;;;;;;1.43;0.70;;;15.80;99.90;;;;;;5022734;28;20433;-82
2023/10/28 10:48:04;;;;;;;1.27;0.87;;;15.70;99.90;;;;;;5016592;28;20466;-84
2023/10/28 10:50:31;;;;;;;2.40;0.40;;;15.70;99.90;;;;;;5015217;28;20432;-83
2023/10/28 10:52:57;;;;;;;3.57;0.80;;;;;;;;;;5015534;28;20527;-85
2023/10/28 10:55:23;;;;;;;3.40;0.97;;;15.70;99.90;;;;;;5017034;28;20405;-84
2023/10/28 10:57:52;;;;;;;1.30;0.87;;;15.80;99.90;;;;;;5025528;28;20508;-82
2023/10/28 11:00:18;;;;;;;0.97;0.43;;;15.80;99.90;;;;;;5012688;28;20441;-84
2023/10/28 11:02:45;;;;;;;8.50;0.97;;;15.80;99.90;;;;;;5015453;28;20527;-84
2023/10/28 11:05:12;;;;;;;1.17;0.63;;;15.80;99.90;;;;;;5014460;28;20426;-85
2023/10/28 11:07:38;;;;;;;1.33;0.97;;;15.80;99.90;;;;;;5016549;28;20640;-83
2023/10/28 11:10:04;;;;;;;2.37;0.80;;;;;;;;;;5029220;28;21188;-85
2023/10/28 11:12:30;;;;;;;2.70;0.70;;;15.70;99.90;;;;;;5006897;28;20285;-82
2023/10/28 11:14:56;;;;;;;1.00;0.70;;;15.90;99.90;;;;;;5014794;28;20481;-82
2023/10/28 11:17:23;;;;;;;3.47;1.33;;;16.10;99.90;;;;;;5020891;28;20673;-84
2023/10/28 11:19:50;;;;;;;2.50;1.10;;;15.40;99.90;;;;;;5015595;28;20468;-85
2023/10/28 11:22:19;;;;;;;14.13;1.00;;;15.40;99.90;;;;;;5034368;28;20481;-86
2023/10/28 11:24:44;;;;;;;5.80;0.73;;;15.20;99.90;;;;;;5018579;28;20441;-84
2023/10/28 11:27:19;;;;;;;2.70;0.60;;;15.30;99.90;;;;;;5014066;28;20456;-83
2023/10/28 11:29:44;;;;;;;2.70;1.00;;;15.20;99.90;;;;;;5014952;28;20178;-81
2023/10/28 11:32:10;;;;;;;0.70;0.70;;;15.00;99.90;;;;;;5012320;28;20504;-83
2023/10/28 11:34:39;;;;;;;1.20;0.67;;;15.00;99.90;;;;;;5014668;28;20722;-81
2023/10/28 11:37:07;;;;;;;4.17;0.97;;;15.00;99.90;;;;;;5010919;28;20444;-84
2023/10/28 11:39:34;;;;;;;7.93;1.20;;;15.30;99.90;;;;;;5014914;28;20507;-83
2023/10/28 11:42:16;;;;;;;1.17;0.37;;;15.50;99.90;;;;;;5014464;28;20552;-82
2023/10/28 11:44:47;;;;;;;1.13;0.63;;;15.50;99.90;;;;;;5029206;28;21117;-85
2023/10/28 11:47:13;;;;;;;0.70;0.37;;;15.70;99.90;;;;;;5014105;28;20418;-83
2023/10/28 11:49:39;;;;;;;0.80;0.57;;;;;;;;;;5013897;28;20503;-83
2023/10/28 11:52:05;;;;;;;8.50;0.93;;;16.00;99.90;;;;;;5009624;28;20206;-84
2023/10/28 11:54:31;;;;;;;2.90;1.03;;;15.60;99.90;;;;;;5014163;28;20441;-84
2023/10/28 11:56:57;;;;;;;0.70;0.60;;;15.30;99.90;;;;;;5014080;28;20452;-80
2023/10/28 11:59:23;;;;;;;1.60;0.67;;;15.00;99.90;;;;;;5021202;28;20429;-82
2023/10/28 12:01:50;;;;;;;3.23;0.60;;;15.00;99.90;;;;;;5010429;28;20209;-84
2023/10/28 12:04:15;;;;;;;2.83;1.47;;;15.10;99.90;;;;;;5013788;28;20186;-81
2023/10/28 12:06:42;;;;;;;5.83;4.53;;;15.00;99.90;;;;;;5014233;28;20552;-83
2023/10/28 12:09:11;;;;;;;4.00;1.80;;;14.80;99.90;;;;;;5009444;28;20522;-81
2023/10/28 12:11:37;;;;;;;4.60;1.20;;;14.40;99.90;;;;;;5014744;28;20456;-82
2023/10/28 12:14:04;;;;;;;6.20;1.27;;;13.90;99.90;;;;;;5014269;28;20445;-83
2023/10/28 12:16:33;;;;;;;2.97;0.80;;;;;;;;;;5013261;28;20446;-85
2023/10/28 12:18:58;;;;;;;0.80;0.73;;;13.30;99.90;;;;;;5014029;28;20437;-80
2023/10/28 12:21:25;;;;;;;14.73;1.13;;;13.10;99.90;;;;;;5012227;28;20455;-85
2023/10/28 12:23:50;;;;;;;0.70;0.40;;;13.00;99.90;;;;;;5014316;28;20206;-85
2023/10/28 12:26:17;;;;;;;2.17;1.13;;;;;;;;;;5013634;28;20506;-85
2023/10/28 12:28:44;;;;;;;7.80;1.37;;;;;;;;;;5009218;28;20201;-81
2023/10/28 12:31:11;;;;;;;1.07;0.50;;;;;;;;;;5015462;28;20472;-84
2023/10/28 12:33:37;;;;;;;0.93;0.63;;;;;;;;;;5012635;28;20457;-83
2023/10/28 12:36:03;;;;;;;2.10;0.80;;;;;;;;;;5008737;28;20455;-84
2023/10/28 12:38:29;;;;;;;2.27;1.13;;;12.80;99.90;;;;;;5022772;28;20545;-85
2023/10/28 12:40:55;;;;;;;0.70;0.60;;;;;;;;;;5017978;28;20436;-82
2023/10/28 12:43:20;;;;;;;0.80;0.80;;;13.10;99.90;;;;;;5013938;28;20232;-83
2023/10/28 12:45:46;;;;;;;2.00;0.97;;;13.30;99.90;;;;;;5014467;28;20449;-84
2023/10/28 12:48:11;;;;;;;1.47;0.60;;;;;;;;;;5015990;28;20194;-85
2023/10/28 12:50:37;;;;;;;2.30;0.97;;;13.30;99.90;;;;;;5016666;28;20301;-82
2023/10/28 12:53:03;;;;;;;2.60;0.87;;;13.20;99.90;;;;;;5011131;28;20458;-85
2023/10/28 12:55:28;;;;;;;1.10;0.90;;;13.10;99.90;;;;;;5016668;28;20186;-84
2023/10/28 12:57:54;;;;;;;3.07;0.70;;;;;;;;;;5012660;28;20194;-87
2023/10/28 13:00:20;;;;;;;2.10;0.70;;;13.00;99.90;;;;;;5008547;28;20190;-84
2023/10/28 13:02:45;;;;;;;3.17;0.50;;;13.00;99.90;;;;;;5031928;28;20523;-85
2023/10/28 13:05:11;;;;;;;0.60;0.47;;;13.00;99.90;;;;;;5033000;28;20197;-85
2023/10/28 13:07:37;;;;;;;1.70;0.93;;;;;;;;;;5014769;28;20190;-85